Flight Track Log - Related Links

Times and Time Zones

All times are in EDT time to prevent confusion due to time zone crossing. See the UPS1214 flight status page for this flight to view local times or setup timezone preferences in your user account.

Time Position Orientation Groundspeed Altitude Reporting Facility
EDT Latitude Longitude Course Direction KTS MPH feet Rate Location/Type
Sat 05:16:11 AM 38.1650 -85.7390 295° West 32 37  Level FlightAware ADS-B
Sat 05:16:25 AM 38.1660 -85.7390 360° North 34 39 136 Level FlightAware ADS-B
Sat 05:17:06 AM 38.1690 -85.7400 345° North 17 20 141 Level FlightAware ADS-B
Sat 05:17:33 AM 38.1720 -85.7410 345° North 19 22 158 Level FlightAware ADS-B
Sat 05:18:03 AM 38.1750 -85.7420 345° North 23 26 172 Level FlightAware ADS-B
Sat 05:18:30 AM 38.1770 -85.7430 339° North 21 24 190 Level FlightAware ADS-B
Sat 05:18:55 AM 38.1800 -85.7440 345° North 16 18 210 Level FlightAware ADS-B
Sat 05:19:21 AM 38.1800 -85.7430 90° East 30 35 233 Level FlightAware ADS-B
Sat 05:19:50 AM 38.1810 -85.7410 58° Northeast 19 22 262 Level FlightAware ADS-B
Sat 05:20:45 AM 38.1840 -85.7350 58° Northeast 16 18 305 Level FlightAware ADS-B
Sat 05:21:04 AM 38.1850 -85.7340 38° Northeast 16 18 443 Level FlightAware ADS-B
Sat 05:21:16 AM 38.1860 -85.7340 360° North 34 39 524 Level FlightAware ADS-B
Sat 05:21:31 AM 38.1870 -85.7330 38° Northeast 30 35 593 Level FlightAware ADS-B
Sat 05:21:50 AM 38.1870 -85.7320 90° East 33 38 711 Level FlightAware ADS-B
Sat 05:22:21 AM 38.1830 -85.7300 159° South 84 97 947 Level FlightAware ADS-B
Sat 05:22:47 AM 38.1670 -85.7240 164° South 163 188 900 2,333 Climbing FlightAware ADS-B
Sat 05:23:15 AM 38.1470 -85.7170 165° South 175 201 2,100 2,111 Climbing FlightAware ADS-B
Sat 05:23:41 AM 38.1240 -85.7080 163° South 218 251 2,800 2,333 Climbing FlightAware ADS-B
Sat 05:24:09 AM 38.0950 -85.6970 163° South 238 274 4,200 2,714 Climbing FlightAware ADS-B
Sat 05:24:23 AM 38.0820 -85.6870 149° Southeast 258 297 4,700 2,538 Climbing FlightAware ADS-B
Sat 05:24:35 AM 38.0730 -85.6710 126° Southeast 273 314 5,300 3,273 Climbing FlightAware ADS-B
Sat 05:24:45 AM 38.0700 -85.6560 104° East 277 319 5,900 3,800 Climbing FlightAware ADS-B
Sat 05:25:05 AM 38.0660 -85.6230 99° East 280 322 7,200 3,467 Climbing FlightAware ADS-B
Sat 05:25:30 AM 38.0620 -85.5830 97° East 288 331 8,500 3,134 Climbing FlightAware ADS-B
Sat 05:26:12 AM 38.0550 -85.5090 97° East 305 351 10,700 2,523 Climbing FlightAware ADS-B
Sat 05:26:58 AM 38.0480 -85.4190 96° East 365 420 12,200 2,864 Climbing FlightAware ADS-B
Sat 05:27:40 AM 38.0410 -85.3270 95° East 383 441 14,900 3,692 Climbing FlightAware ADS-B
Sat 05:28:16 AM 38.0350 -85.2460 95° East 396 456 17,000 3,525 Climbing FlightAware ADS-B
Sat 05:29:00 AM 38.0270 -85.1430 96° East 412 474 19,600 3,209 Climbing FlightAware ADS-B
Sat 05:29:42 AM 38.0380 -85.0390 82° East 443 510 21,600 2,714 Climbing FlightAware ADS-B
Sat 05:30:24 AM 38.0610 -84.9310 75° East 460 529 23,400 2,512 Climbing FlightAware ADS-B
Sat 05:31:08 AM 38.0860 -84.8150 75° East 475 547 25,200 2,488 Climbing FlightAware ADS-B
Sat 05:31:46 AM 38.1090 -84.7100 74° East 483 556 26,800 2,250 Climbing FlightAware ADS-B
Sat 05:32:28 AM 38.1340 -84.5970 74° East 498 573 28,200 1,389 Climbing FlightAware ADS-B
Sat 05:33:21 AM 38.1630 -84.4660 74° East 501 577 29,000 480 Climbing FlightAware ADS-B
Sat 05:34:08 AM 38.1890 -84.3520 74° East 501 577 29,000 3,319 Level FlightAware ADS-B
Sat 05:34:55 AM 38.2236 -84.1823 75° East 492 566 34,200 4,045 Climbing FlightAware ADS-B
Sat 05:35:37 AM 38.2490 -84.0633 75° East 495 570 35,000 649 Climbing FlightAware ADS-B
Sat 05:36:09 AM 38.2670 -83.9770 75° East 494 568 35,000  Level FlightAware ADS-B
Sat 05:36:47 AM 38.2900 -83.8710 75° East 493 567 35,000  Level FlightAware ADS-B
Sat 05:37:27 AM 38.3130 -83.7600 75° East 491 565 35,000  Level FlightAware ADS-B
Sat 05:38:01 AM 38.3340 -83.6610 75° East 489 563 35,000  Level FlightAware ADS-B
Sat 05:38:51 AM 38.3590 -83.5430 75° East 489 563 35,000  Level FlightAware ADS-B
Sat 05:39:27 AM 38.3770 -83.4580 75° East 489 563 35,000  Level FlightAware ADS-B
Sat 05:40:17 AM 38.4116 -83.2854 76° East 486 559 35,000  Level FlightAware ADS-B
Sat 05:40:52 AM 38.4313 -83.1885 75° East 485 558 35,000  Level FlightAware ADS-B
Sat 05:41:35 AM 38.4550 -83.0720 75° East 486 559 35,000  Level FlightAware ADS-B
Sat 05:42:19 AM 38.4800 -82.9480 76° East 487 560 35,000  Level FlightAware ADS-B
Sat 05:43:03 AM 38.5050 -82.8260 75° East 487 560 35,000  Level FlightAware ADS-B
Sat 05:43:43 AM 38.5270 -82.7140 76° East 486 559 35,000  Level FlightAware ADS-B
Sat 05:44:24 AM 38.5490 -82.6030 76° East 487 560 35,000  Level FlightAware ADS-B
Sat 05:45:10 AM 38.5740 -82.4770 76° East 487 560 35,000  Level FlightAware ADS-B
Sat 05:45:50 AM 38.5970 -82.3630 75° East 488 562 35,000  Level FlightAware ADS-B
Sat 05:46:30 AM 38.6190 -82.2510 76° East 489 563 35,000  Level FlightAware ADS-B
Sat 05:47:16 AM 38.6440 -82.1190 76° East 491 565 35,000  Level FlightAware ADS-B
Sat 05:47:56 AM 38.6660 -82.0090 76° East 492 566 35,000  Level FlightAware ADS-B
Sat 05:48:39 AM 38.6890 -81.8860 76° East 493 567 35,000  Level FlightAware ADS-B
Sat 05:49:19 AM 38.7110 -81.7730 76° East 492 566 35,000  Level FlightAware ADS-B
Sat 05:49:56 AM 38.7300 -81.6700 77° East 491 565 35,000  Level FlightAware ADS-B
Sat 05:50:35 AM 38.7510 -81.5590 76° East 490 564 35,000  Level FlightAware ADS-B
Sat 05:51:17 AM 38.7730 -81.4410 77° East 490 564 35,000  Level FlightAware ADS-B
Sat 05:51:54 AM 38.7910 -81.3450 76° East 490 564 35,000  Level FlightAware ADS-B
Sat 05:52:36 AM 38.8150 -81.2170 76° East 488 562 35,000  Level FlightAware ADS-B
Sat 05:53:18 AM 38.8370 -81.1000 76° East 486 559 35,000  Level FlightAware ADS-B
Sat 05:54:02 AM 38.8600 -80.9760 77° East 486 559 35,000  Level FlightAware ADS-B
Sat 05:54:43 AM 38.8810 -80.8610 77° East 485 558 35,000  Level FlightAware ADS-B
Sat 05:55:19 AM 38.8990 -80.7590 77° East 485 558 35,000  Level FlightAware ADS-B
Sat 05:56:06 AM 38.9220 -80.6350 77° East 484 557 35,000  Level FlightAware ADS-B
Sat 05:56:39 AM 38.9390 -80.5360 78° East 483 556 35,000  Level FlightAware ADS-B
Sat 05:57:21 AM 38.9600 -80.4210 77° East 483 556 35,000  Level FlightAware ADS-B
Sat 05:58:07 AM 38.9830 -80.2910 77° East 481 554 35,000  Level FlightAware ADS-B
Sat 05:58:41 AM 38.9990 -80.1990 77° East 481 554 35,000  Level FlightAware ADS-B
Sat 05:59:21 AM 39.0180 -80.0870 78° East 480 552 35,000  Level FlightAware ADS-B
Sat 06:00:03 AM 39.0390 -79.9700 77° East 481 554 35,000  Level FlightAware ADS-B
Sat 06:00:54 AM 39.0630 -79.8270 78° East 481 554 35,000  Level FlightAware ADS-B
Sat 06:01:35 AM 39.0830 -79.7110 77° East 482 555 35,000  Level FlightAware ADS-B
Sat 06:02:19 AM 39.1040 -79.5910 77° East 482 555 35,000  Level FlightAware ADS-B
Sat 06:02:59 AM 39.1220 -79.4840 78° East 482 555 35,000 -659 Level FlightAware ADS-B
Sat 06:03:41 AM 39.1430 -79.3590 78° East 480 552 34,100 -1,902 Descending FlightAware ADS-B
Sat 06:04:21 AM 39.1620 -79.2470 78° East 477 549 32,400 -2,791 Descending FlightAware ADS-B
Sat 06:05:07 AM 39.1830 -79.1170 78° East 497 572 30,100 -2,523 Descending FlightAware ADS-B
Sat 06:05:49 AM 39.2030 -78.9950 78° East 500 575 28,700 -2,308 Descending FlightAware ADS-B
Sat 06:06:25 AM 39.2200 -78.8920 78° East 494 568 27,100 -2,707 Descending FlightAware ADS-B
Sat 06:07:11 AM 39.2420 -78.7620 78° East 486 559 25,000 -2,764 Descending FlightAware ADS-B
Sat 06:07:54 AM 39.2610 -78.6380 79° East 477 549 23,000 -2,747 Descending FlightAware ADS-B
Sat 06:08:34 AM 39.2790 -78.5290 78° East 470 541 21,200 -2,721 Descending FlightAware ADS-B
Sat 06:09:20 AM 39.2990 -78.4040 78° East 460 529 19,100 -2,850 Descending FlightAware ADS-B
Sat 06:09:54 AM 39.3130 -78.3110 79° East 459 528 17,400 -2,923 Descending FlightAware ADS-B
Sat 06:10:38 AM 39.3320 -78.1940 78° East 451 519 15,300 -1,642 Descending FlightAware ADS-B
Sat 06:11:29 AM 39.3520 -78.0650 79° East 437 503 14,800 -330 Descending FlightAware ADS-B
Sat 06:12:09 AM 39.3670 -77.9720 78° East 440 506 14,800  Level FlightAware ADS-B
Sat 06:12:49 AM 39.3840 -77.8590 79° East 441 507 14,800  Level FlightAware ADS-B
Sat 06:13:30 AM 39.3950 -77.7770 80° East 440 506 14,800 -357 Level FlightAware ADS-B
Sat 06:14:13 AM 39.4090 -77.6700 80° East 436 502 14,300 -1,636 Descending FlightAware ADS-B
Sat 06:15:20 AM 39.4280 -77.5170 81° East 425 489 11,800 -1,034 Descending FlightAware ADS-B
Sat 06:17:36 AM 39.4730 -77.1600 81° East 416 479 10,800 -331 Descending FlightAware ADS-B
Sat 06:18:21 AM 39.4660 -77.0430 94° East 347 399 10,800 -200 Level FlightAware ADS-B
Sat 06:19:06 AM 39.4600 -76.9560 95° East 312 359 10,500 -918 Descending FlightAware ADS-B
Sat 06:19:46 AM 39.4540 -76.8820 96° East 311 358 9,500 -1,385 Descending FlightAware ADS-B
Sat 06:20:11 AM 39.4500 -76.8350 96° East 309 356 9,000 -1,171 Descending FlightAware ADS-B
Sat 06:20:27 AM 39.4480 -76.8070 95° East 306 352 8,700 -1,200 Descending FlightAware ADS-B
Sat 06:20:51 AM 39.4420 -76.7680 101° East 295 339 8,200 -1,385 Descending FlightAware ADS-B
Sat 06:21:06 AM 39.4250 -76.7450 134° Southeast 286 329 7,800 -1,467 Descending FlightAware ADS-B
Sat 06:21:36 AM 39.3910 -76.7160 147° Southeast 287 330 7,100 -1,400 Descending FlightAware ADS-B
Sat 06:22:06 AM 39.3580 -76.6870 146° Southeast 286 329 6,400 -1,418 Descending FlightAware ADS-B
Sat 06:22:31 AM 39.3320 -76.6640 146° Southeast 286 329 5,800 -1,368 Descending FlightAware ADS-B
Sat 06:23:03 AM 39.2970 -76.6340 146° Southeast 277 319 5,100 -1,053 Descending FlightAware ADS-B
Sat 06:23:28 AM 39.2690 -76.6100 146° Southeast 274 315 4,800 -360 Descending FlightAware ADS-B
Sat 06:23:53 AM 39.2430 -76.5880 147° Southeast 275 316 4,800 -327 Level FlightAware ADS-B
Sat 06:24:23 AM 39.2100 -76.5600 147° Southeast 261 300 4,500 -700 Descending FlightAware ADS-B
Sat 06:24:53 AM 39.1800 -76.5330 145° Southeast 256 295 4,100 -700 Descending FlightAware ADS-B
Sat 06:25:23 AM 39.1530 -76.5090 145° Southeast 235 270 3,800 -655 Descending FlightAware ADS-B
Sat 06:25:48 AM 39.1300 -76.4880 145° Southeast 222 255 3,500 -600 Descending FlightAware ADS-B
Sat 06:26:03 AM 39.1160 -76.4770 149° Southeast 221 254 3,400 -800 Descending FlightAware ADS-B
Sat 06:26:18 AM 39.1030 -76.4690 154° Southeast 196 226 3,100 -1,154 Descending FlightAware ADS-B
Sat 06:26:29 AM 39.0940 -76.4710 190° South 186 214 2,900 -1,440 Descending FlightAware ADS-B
Sat 06:26:43 AM 39.0850 -76.4790 215° Southwest 181 208 2,500 -814 Descending FlightAware ADS-B
Sat 06:27:28 AM 39.0630 -76.5080 226° Southwest 175 201 2,100 -340 Descending FlightAware ADS-B
Sat 06:28:29 AM 39.0667 -76.5667 226° Southwest 166 191 1,900 -313 Descending Potomac TRACON
Sat 06:29:23 AM 39.1000 -76.6167 311° West 172 198 1,500 -650 Descending Potomac TRACON
Sat 06:30:29 AM 39.1500 -76.6500 333° Northwest 138 159 600 -818 Descending Potomac TRACON
Sat 06:32:00 AM 39.1667 -76.6667 277° West  Level FlightAware Approximate
Sat 06:39:00 AM 39.1754 -76.6683 277° West  Level Estimated
Sat 06:40:00 AM 39.1754 -76.6683 277° West  Level Estimated

Login

Don't have an account? Register now (free) for customized features, flight alerts, and more!